Chalkyitsik Airport


Codes: PACI/CIK
Name: Chalkyitsik Airport
City: Chalkyitsik
Country: United States
Elevation: 544 ft.

Photos at Chalkyitsik Airport


   Photos courtesy of SpottingLog. You can add your own sightings and photos by signing up for a free trial today.



No photos found.

Weather at Chalkyitsik Airport


Time (UTC)DescriptionTempratureWindCloud coverageVisibilityPressureHumidity
19-Apr-2024 06:00Overcast Clouds4°C4 mph, NE90%150m1024hPa97%
19-Apr-2024 09:00Overcast Clouds1°C4 mph, NE93%243m1024hPa98%
19-Apr-2024 12:00Overcast Clouds-1°C2 mph, E86%1537m1024hPa100%
19-Apr-2024 15:00Broken Clouds-1°C2 mph, E82%962m1024hPa99%
19-Apr-2024 18:00Broken Clouds3°C2 mph, E79%10000m1023hPa88%
19-Apr-2024 21:00Few Clouds7°C2 mph, E11%10000m1022hPa71%
20-Apr-2024 00:00Clear Sky8°C2 mph, SE10%10000m1020hPa65%
20-Apr-2024 03:00Clear Sky6°C2 mph, NW5%10000m1019hPa89%
20-Apr-2024 06:00Clear Sky-0°C2 mph, NE5%10000m1019hPa97%
20-Apr-2024 09:00Few Clouds-2°C2 mph, NE22%10000m1018hPa98%
20-Apr-2024 12:00Scattered Clouds-2°C2 mph, NE30%9438m1018hPa99%
20-Apr-2024 15:00Broken Clouds-0°C0 mph, NE74%4486m1017hPa97%
20-Apr-2024 18:00Overcast Clouds2°C2 mph, N86%4265m1016hPa94%
20-Apr-2024 21:00Overcast Clouds3°C2 mph, N100%10000m1015hPa90%
21-Apr-2024 00:00Overcast Clouds3°C2 mph, N100%10000m1014hPa87%
21-Apr-2024 03:00Overcast Clouds3°C2 mph, N100%10000m1013hPa87%
21-Apr-2024 06:00Overcast Clouds2°C2 mph, NE100%10000m1013hPa82%
21-Apr-2024 09:00Overcast Clouds1°C4 mph, NE100%10000m1013hPa86%
21-Apr-2024 12:00Overcast Clouds0°C4 mph, NE100%10000m1013hPa91%
21-Apr-2024 15:00Overcast Clouds0°C4 mph, NE100%10000m1012hPa90%
21-Apr-2024 18:00Overcast Clouds1°C4 mph, NE100%10000m1013hPa85%
21-Apr-2024 21:00Overcast Clouds2°C4 mph, NE100%10000m1013hPa82%
22-Apr-2024 00:00Overcast Clouds3°C2 mph, N100%10000m1013hPa78%
22-Apr-2024 03:00Overcast Clouds3°C2 mph, N100%10000m1013hPa85%
22-Apr-2024 06:00Overcast Clouds1°C2 mph, N100%10000m1014hPa92%
22-Apr-2024 09:00Overcast Clouds1°C2 mph, NE100%10000m1015hPa92%
22-Apr-2024 12:00Overcast Clouds0°C0 mph, NE100%10000m1016hPa92%
22-Apr-2024 15:00Overcast Clouds1°C2 mph, N100%10000m1017hPa91%
22-Apr-2024 18:00Overcast Clouds2°C2 mph, NE100%10000m1018hPa84%
22-Apr-2024 21:00Overcast Clouds4°C0 mph, N100%10000m1018hPa75%
23-Apr-2024 00:00Overcast Clouds4°C2 mph, W100%10000m1018hPa71%
23-Apr-2024 03:00Overcast Clouds4°C2 mph, NE94%10000m1018hPa79%
23-Apr-2024 06:00Overcast Clouds1°C4 mph, NE86%10000m1018hPa94%
23-Apr-2024 09:00Broken Clouds-1°C4 mph, NE77%10000m1019hPa95%
23-Apr-2024 12:00Broken Clouds-2°C4 mph, NE75%10000m1019hPa94%
23-Apr-2024 15:00Broken Clouds-1°C4 mph, NE75%10000m1019hPa88%
23-Apr-2024 18:00Broken Clouds2°C4 mph, NE70%10000m1019hPa71%
23-Apr-2024 21:00Broken Clouds5°C7 mph, N61%10000m1018hPa63%
24-Apr-2024 00:00Broken Clouds5°C7 mph, N80%10000m1018hPa62%
24-Apr-2024 03:00Overcast Clouds4°C7 mph, N100%10000m1017hPa70%